sensor_id;sensor_type;location;lat;lon;timestamp;pressure;altitude;pressure_sealevel;temperature
64916;BMP280;51427;-27.442;153.014;2022-08-19T00:01:53;101510.06;;;25.30
64916;BMP280;51427;-27.442;153.014;2022-08-19T00:04:24;101495.31;;;25.89
64916;BMP280;51427;-27.442;153.014;2022-08-19T00:06:52;101495.22;;;27.03
64916;BMP280;51427;-27.442;153.014;2022-08-19T00:09:20;101494.81;;;26.84
64916;BMP280;51427;-27.442;153.014;2022-08-19T00:11:48;101498.19;;;26.56
64916;BMP280;51427;-27.442;153.014;2022-08-19T00:14:17;101498.28;;;26.92
64916;BMP280;51427;-27.442;153.014;2022-08-19T00:16:47;101482.97;;;27.45
64916;BMP280;51427;-27.442;153.014;2022-08-19T00:19:16;101490.38;;;26.54
64916;BMP280;51427;-27.442;153.014;2022-08-19T00:21:43;101477.06;;;27.72
64916;BMP280;51427;-27.442;153.014;2022-08-19T00:24:13;101456.91;;;29.31
64916;BMP280;51427;-27.442;153.014;2022-08-19T00:26:43;101455.03;;;29.25
64916;BMP280;51427;-27.442;153.014;2022-08-19T00:29:13;101446.19;;;28.41
64916;BMP280;51427;-27.442;153.014;2022-08-19T00:31:41;101461.22;;;25.54
64916;BMP280;51427;-27.442;153.014;2022-08-19T00:34:10;101455.28;;;25.45
64916;BMP280;51427;-27.442;153.014;2022-08-19T00:36:38;101449.78;;;25.46
64916;BMP280;51427;-27.442;153.014;2022-08-19T00:39:06;101438.47;;;26.66
64916;BMP280;51427;-27.442;153.014;2022-08-19T00:41:34;101433.38;;;25.43
64916;BMP280;51427;-27.442;153.014;2022-08-19T00:44:05;101421.25;;;26.77
64916;BMP280;51427;-27.442;153.014;2022-08-19T00:46:35;101432.97;;;26.90
64916;BMP280;51427;-27.442;153.014;2022-08-19T00:49:06;101420.56;;;27.62
64916;BMP280;51427;-27.442;153.014;2022-08-19T00:51:36;101409.00;;;28.54
64916;BMP280;51427;-27.442;153.014;2022-08-19T00:54:04;101429.81;;;27.23
64916;BMP280;51427;-27.442;153.014;2022-08-19T00:56:32;101419.97;;;26.95
64916;BMP280;51427;-27.442;153.014;2022-08-19T00:59:00;101407.22;;;28.05
64916;BMP280;51427;-27.442;153.014;2022-08-19T01:01:28;101398.28;;;26.98
64916;BMP280;51427;-27.442;153.014;2022-08-19T01:03:55;101397.31;;;28.34
64916;BMP280;51427;-27.442;153.014;2022-08-19T01:06:22;101375.25;;;29.83
64916;BMP280;51427;-27.442;153.014;2022-08-19T01:08:49;101387.78;;;27.47
64916;BMP280;51427;-27.442;153.014;2022-08-19T01:11:17;101381.88;;;28.51
64916;BMP280;51427;-27.442;153.014;2022-08-19T01:13:45;101371.78;;;29.95
64916;BMP280;51427;-27.442;153.014;2022-08-19T01:16:14;101371.31;;;29.79
64916;BMP280;51427;-27.442;153.014;2022-08-19T01:18:42;101363.81;;;29.55
64916;BMP280;51427;-27.442;153.014;2022-08-19T01:21:42;101350.09;;;30.43
64916;BMP280;51427;-27.442;153.014;2022-08-19T01:24:12;101347.84;;;31.05
64916;BMP280;51427;-27.442;153.014;2022-08-19T01:26:42;101338.75;;;30.28
64916;BMP280;51427;-27.442;153.014;2022-08-19T01:29:11;101332.84;;;30.91
64916;BMP280;51427;-27.442;153.014;2022-08-19T01:31:38;101340.63;;;29.75
64916;BMP280;51427;-27.442;153.014;2022-08-19T01:34:06;101331.19;;;30.45
64916;BMP280;51427;-27.442;153.014;2022-08-19T01:36:43;101326.03;;;30.69
64916;BMP280;51427;-27.442;153.014;2022-08-19T01:39:20;101325.56;;;28.87
64916;BMP280;51427;-27.442;153.014;2022-08-19T01:41:48;101323.78;;;30.92
64916;BMP280;51427;-27.442;153.014;2022-08-19T01:44:16;101308.38;;;31.50
64916;BMP280;51427;-27.442;153.014;2022-08-19T01:46:48;101302.97;;;31.63
64916;BMP280;51427;-27.442;153.014;2022-08-19T01:49:19;101295.66;;;31.26
64916;BMP280;51427;-27.442;153.014;2022-08-19T01:51:47;101301.53;;;30.59
64916;BMP280;51427;-27.442;153.014;2022-08-19T01:54:17;101299.84;;;30.07
64916;BMP280;51427;-27.442;153.014;2022-08-19T01:56:44;101292.28;;;29.51
64916;BMP280;51427;-27.442;153.014;2022-08-19T01:59:14;101280.97;;;30.92
64916;BMP280;51427;-27.442;153.014;2022-08-19T02:01:43;101274.66;;;31.23
64916;BMP280;51427;-27.442;153.014;2022-08-19T02:04:11;101256.19;;;31.09
64916;BMP280;51427;-27.442;153.014;2022-08-19T02:06:38;101256.69;;;30.68
64916;BMP280;51427;-27.442;153.014;2022-08-19T02:09:07;101252.59;;;30.46
64916;BMP280;51427;-27.442;153.014;2022-08-19T02:11:37;101248.25;;;30.19
64916;BMP280;51427;-27.442;153.014;2022-08-19T02:14:07;101235.50;;;30.40
64916;BMP280;51427;-27.442;153.014;2022-08-19T02:16:36;101226.47;;;31.23
64916;BMP280;51427;-27.442;153.014;2022-08-19T02:19:04;101212.66;;;30.19
64916;BMP280;51427;-27.442;153.014;2022-08-19T02:21:33;101223.22;;;31.96
64916;BMP280;51427;-27.442;153.014;2022-08-19T02:24:01;101213.16;;;32.15
64916;BMP280;51427;-27.442;153.014;2022-08-19T02:26:28;101199.41;;;31.75
64916;BMP280;51427;-27.442;153.014;2022-08-19T02:28:56;101183.16;;;32.01
64916;BMP280;51427;-27.442;153.014;2022-08-19T02:31:24;101196.03;;;31.86
64916;BMP280;51427;-27.442;153.014;2022-08-19T02:33:54;101179.09;;;33.47
64916;BMP280;51427;-27.442;153.014;2022-08-19T02:36:22;101195.78;;;31.94
64916;BMP280;51427;-27.442;153.014;2022-08-19T02:38:50;101182.72;;;31.73
64916;BMP280;51427;-27.442;153.014;2022-08-19T02:41:20;101187.50;;;30.90
64916;BMP280;51427;-27.442;153.014;2022-08-19T02:43:48;101171.41;;;32.02
64916;BMP280;51427;-27.442;153.014;2022-08-19T02:46:19;101171.34;;;32.86
64916;BMP280;51427;-27.442;153.014;2022-08-19T02:48:48;101166.22;;;32.49
64916;BMP280;51427;-27.442;153.014;2022-08-19T02:51:22;101156.78;;;32.46
64916;BMP280;51427;-27.442;153.014;2022-08-19T02:53:50;101164.88;;;32.58
64916;BMP280;51427;-27.442;153.014;2022-08-19T02:56:18;101166.66;;;31.42
64916;BMP280;51427;-27.442;153.014;2022-08-19T02:58:46;101152.56;;;32.50
64916;BMP280;51427;-27.442;153.014;2022-08-19T03:01:29;101156.53;;;33.01
64916;BMP280;51427;-27.442;153.014;2022-08-19T03:04:03;101147.34;;;32.91
64916;BMP280;51427;-27.442;153.014;2022-08-19T03:06:31;101150.78;;;32.98
64916;BMP280;51427;-27.442;153.014;2022-08-19T03:08:58;101144.97;;;32.23
64916;BMP280;51427;-27.442;153.014;2022-08-19T03:11:28;101147.94;;;31.91
64916;BMP280;51427;-27.442;153.014;2022-08-19T03:13:57;101154.97;;;31.92
64916;BMP280;51427;-27.442;153.014;2022-08-19T03:16:27;101160.66;;;31.71
64916;BMP280;51427;-27.442;153.014;2022-08-19T03:18:57;101143.34;;;32.64
64916;BMP280;51427;-27.442;153.014;2022-08-19T03:21:31;101144.41;;;33.39
64916;BMP280;51427;-27.442;153.014;2022-08-19T03:24:03;101126.00;;;33.13
64916;BMP280;51427;-27.442;153.014;2022-08-19T03:26:32;101135.88;;;32.84
64916;BMP280;51427;-27.442;153.014;2022-08-19T03:29:04;101132.97;;;32.85
64916;BMP280;51427;-27.442;153.014;2022-08-19T03:31:32;101130.44;;;31.88
64916;BMP280;51427;-27.442;153.014;2022-08-19T03:33:59;101131.97;;;32.26
64916;BMP280;51427;-27.442;153.014;2022-08-19T03:36:27;101119.50;;;32.56
64916;BMP280;51427;-27.442;153.014;2022-08-19T03:38:58;101127.97;;;32.35
64916;BMP280;51427;-27.442;153.014;2022-08-19T03:41:28;101123.13;;;32.97
64916;BMP280;51427;-27.442;153.014;2022-08-19T03:43:57;101137.13;;;32.99
64916;BMP280;51427;-27.442;153.014;2022-08-19T03:46:27;101132.66;;;32.93
64916;BMP280;51427;-27.442;153.014;2022-08-19T03:48:57;101125.59;;;31.79
64916;BMP280;51427;-27.442;153.014;2022-08-19T03:51:31;101133.97;;;33.49
64916;BMP280;51427;-27.442;153.014;2022-08-19T03:54:01;101122.09;;;33.56
64916;BMP280;51427;-27.442;153.014;2022-08-19T03:56:29;101130.66;;;33.76
64916;BMP280;51427;-27.442;153.014;2022-08-19T03:58:57;101117.91;;;32.66
64916;BMP280;51427;-27.442;153.014;2022-08-19T04:01:28;101120.06;;;32.76
64916;BMP280;51427;-27.442;153.014;2022-08-19T04:04:00;101107.59;;;32.99
64916;BMP280;51427;-27.442;153.014;2022-08-19T04:06:30;101109.50;;;33.39
64916;BMP280;51427;-27.442;153.014;2022-08-19T04:08:59;101105.63;;;32.59
64916;BMP280;51427;-27.442;153.014;2022-08-19T04:11:30;101104.09;;;33.28
64916;BMP280;51427;-27.442;153.014;2022-08-19T04:13:57;101097.31;;;33.66
64916;BMP280;51427;-27.442;153.014;2022-08-19T04:16:29;101090.34;;;32.89
64916;BMP280;51427;-27.442;153.014;2022-08-19T04:19:00;101094.94;;;33.17
64916;BMP280;51427;-27.442;153.014;2022-08-19T04:21:28;101096.63;;;33.01
64916;BMP280;51427;-27.442;153.014;2022-08-19T04:23:57;101095.75;;;32.17
64916;BMP280;51427;-27.442;153.014;2022-08-19T04:26:27;101094.88;;;32.77
64916;BMP280;51427;-27.442;153.014;2022-08-19T04:28:55;101074.47;;;32.58
64916;BMP280;51427;-27.442;153.014;2022-08-19T04:31:25;101083.47;;;32.63
64916;BMP280;51427;-27.442;153.014;2022-08-19T04:34:00;101072.94;;;32.09
64916;BMP280;51427;-27.442;153.014;2022-08-19T04:36:32;101076.03;;;32.30
64916;BMP280;51427;-27.442;153.014;2022-08-19T04:39:05;101064.75;;;32.04
64916;BMP280;51427;-27.442;153.014;2022-08-19T04:41:34;101063.56;;;32.00
64916;BMP280;51427;-27.442;153.014;2022-08-19T04:44:20;101050.06;;;32.95
64916;BMP280;51427;-27.442;153.014;2022-08-19T04:46:48;101055.66;;;32.76
64916;BMP280;51427;-27.442;153.014;2022-08-19T04:49:18;101056.50;;;33.06
64916;BMP280;51427;-27.442;153.014;2022-08-19T04:51:46;101049.91;;;31.59
64916;BMP280;51427;-27.442;153.014;2022-08-19T04:54:15;101046.75;;;31.86
64916;BMP280;51427;-27.442;153.014;2022-08-19T04:56:43;101039.59;;;32.40
64916;BMP280;51427;-27.442;153.014;2022-08-19T04:59:10;101037.91;;;31.62
64916;BMP280;51427;-27.442;153.014;2022-08-19T05:01:38;101035.72;;;31.52
64916;BMP280;51427;-27.442;153.014;2022-08-19T05:04:06;101041.44;;;31.80
64916;BMP280;51427;-27.442;153.014;2022-08-19T05:06:34;101038.31;;;32.07
64916;BMP280;51427;-27.442;153.014;2022-08-19T05:09:05;101039.38;;;31.82
64916;BMP280;51427;-27.442;153.014;2022-08-19T05:11:35;101032.63;;;30.94
64916;BMP280;51427;-27.442;153.014;2022-08-19T05:14:07;101025.16;;;31.57
64916;BMP280;51427;-27.442;153.014;2022-08-19T05:16:34;101034.34;;;31.13
64916;BMP280;51427;-27.442;153.014;2022-08-19T05:19:02;101020.94;;;31.50
64916;BMP280;51427;-27.442;153.014;2022-08-19T05:21:47;101027.09;;;31.19
64916;BMP280;51427;-27.442;153.014;2022-08-19T05:24:32;101024.19;;;31.76
64916;BMP280;51427;-27.442;153.014;2022-08-19T05:27:00;101025.44;;;31.73
64916;BMP280;51427;-27.442;153.014;2022-08-19T05:29:29;101020.84;;;31.32
64916;BMP280;51427;-27.442;153.014;2022-08-19T05:32:01;101027.84;;;30.59
64916;BMP280;51427;-27.442;153.014;2022-08-19T05:34:31;101014.34;;;31.46
64916;BMP280;51427;-27.442;153.014;2022-08-19T05:37:01;101020.53;;;31.16
64916;BMP280;51427;-27.442;153.014;2022-08-19T05:39:32;101035.03;;;30.65
64916;BMP280;51427;-27.442;153.014;2022-08-19T05:42:06;101022.03;;;31.42
64916;BMP280;51427;-27.442;153.014;2022-08-19T05:44:35;101032.81;;;30.99
64916;BMP280;51427;-27.442;153.014;2022-08-19T05:47:05;101036.06;;;30.70
64916;BMP280;51427;-27.442;153.014;2022-08-19T05:49:35;101037.19;;;30.43
64916;BMP280;51427;-27.442;153.014;2022-08-19T05:52:05;101034.53;;;30.30
64916;BMP280;51427;-27.442;153.014;2022-08-19T05:54:33;101027.19;;;30.20
64916;BMP280;51427;-27.442;153.014;2022-08-19T05:57:02;101028.34;;;30.43
64916;BMP280;51427;-27.442;153.014;2022-08-19T05:59:29;101029.16;;;30.43
64916;BMP280;51427;-27.442;153.014;2022-08-19T06:01:57;101040.19;;;29.97
64916;BMP280;51427;-27.442;153.014;2022-08-19T06:04:24;101038.28;;;30.73
64916;BMP280;51427;-27.442;153.014;2022-08-19T06:06:53;101033.44;;;31.01
64916;BMP280;51427;-27.442;153.014;2022-08-19T06:09:21;101040.69;;;30.37
64916;BMP280;51427;-27.442;153.014;2022-08-19T06:11:55;101039.53;;;31.08
64916;BMP280;51427;-27.442;153.014;2022-08-19T06:14:29;101047.94;;;30.74
64916;BMP280;51427;-27.442;153.014;2022-08-19T06:16:57;101051.13;;;31.02
64916;BMP280;51427;-27.442;153.014;2022-08-19T06:19:26;101056.94;;;30.86
64916;BMP280;51427;-27.442;153.014;2022-08-19T06:21:57;101055.50;;;30.46
64916;BMP280;51427;-27.442;153.014;2022-08-19T06:24:27;101046.22;;;30.42
64916;BMP280;51427;-27.442;153.014;2022-08-19T06:26:56;101052.50;;;31.11
64916;BMP280;51427;-27.442;153.014;2022-08-19T06:29:26;101055.59;;;30.08
64916;BMP280;51427;-27.442;153.014;2022-08-19T06:31:56;101054.75;;;30.14
64916;BMP280;51427;-27.442;153.014;2022-08-19T06:34:24;101061.31;;;30.11
64916;BMP280;51427;-27.442;153.014;2022-08-19T06:36:53;101048.44;;;30.58
64916;BMP280;51427;-27.442;153.014;2022-08-19T06:39:24;101057.69;;;29.86
64916;BMP280;51427;-27.442;153.014;2022-08-19T06:41:54;101061.38;;;29.66
64916;BMP280;51427;-27.442;153.014;2022-08-19T06:44:24;101061.97;;;29.68
64916;BMP280;51427;-27.442;153.014;2022-08-19T06:46:55;101056.81;;;30.05
64916;BMP280;51427;-27.442;153.014;2022-08-19T06:49:23;101060.94;;;29.88
64916;BMP280;51427;-27.442;153.014;2022-08-19T06:51:51;101066.72;;;29.66
64916;BMP280;51427;-27.442;153.014;2022-08-19T06:54:19;101067.53;;;29.79
64916;BMP280;51427;-27.442;153.014;2022-08-19T06:56:46;101067.28;;;30.07
64916;BMP280;51427;-27.442;153.014;2022-08-19T06:59:21;101062.56;;;30.09
64916;BMP280;51427;-27.442;153.014;2022-08-19T07:01:54;101074.09;;;29.77
64916;BMP280;51427;-27.442;153.014;2022-08-19T07:04:24;101063.81;;;30.06
64916;BMP280;51427;-27.442;153.014;2022-08-19T07:06:59;101063.41;;;29.90
64916;BMP280;51427;-27.442;153.014;2022-08-19T07:09:27;101070.78;;;30.14
64916;BMP280;51427;-27.442;153.014;2022-08-19T07:11:55;101065.88;;;29.91
64916;BMP280;51427;-27.442;153.014;2022-08-19T07:14:26;101070.00;;;29.81
64916;BMP280;51427;-27.442;153.014;2022-08-19T07:16:55;101083.84;;;29.06
64916;BMP280;51427;-27.442;153.014;2022-08-19T07:19:24;101069.75;;;28.65
64916;BMP280;51427;-27.442;153.014;2022-08-19T07:21:54;101076.34;;;28.69
64916;BMP280;51427;-27.442;153.014;2022-08-19T07:24:25;101091.09;;;28.65
64916;BMP280;51427;-27.442;153.014;2022-08-19T07:26:55;101077.63;;;28.86
64916;BMP280;51427;-27.442;153.014;2022-08-19T07:29:23;101078.19;;;29.28
64916;BMP280;51427;-27.442;153.014;2022-08-19T07:31:51;101077.00;;;28.78
64916;BMP280;51427;-27.442;153.014;2022-08-19T07:34:18;101077.38;;;29.40
64916;BMP280;51427;-27.442;153.014;2022-08-19T07:36:46;101087.41;;;29.26
64916;BMP280;51427;-27.442;153.014;2022-08-19T07:39:19;101081.06;;;29.27
64916;BMP280;51427;-27.442;153.014;2022-08-19T07:41:47;101085.25;;;28.89
64916;BMP280;51427;-27.442;153.014;2022-08-19T07:44:18;101083.97;;;28.79
64916;BMP280;51427;-27.442;153.014;2022-08-19T07:46:52;101087.50;;;28.92
64916;BMP280;51427;-27.442;153.014;2022-08-19T07:49:21;101093.69;;;28.52
64916;BMP280;51427;-27.442;153.014;2022-08-19T07:52:00;101091.88;;;28.59
64916;BMP280;51427;-27.442;153.014;2022-08-19T07:54:30;101089.56;;;28.50
64916;BMP280;51427;-27.442;153.014;2022-08-19T07:57:01;101093.81;;;28.38
64916;BMP280;51427;-27.442;153.014;2022-08-19T07:59:29;101091.34;;;28.36
64916;BMP280;51427;-27.442;153.014;2022-08-19T08:01:57;101092.53;;;28.28
64916;BMP280;51427;-27.442;153.014;2022-08-19T08:04:28;101096.94;;;28.14
64916;BMP280;51427;-27.442;153.014;2022-08-19T08:07:14;101102.84;;;28.43
64916;BMP280;51427;-27.442;153.014;2022-08-19T08:09:59;101098.41;;;27.96
64916;BMP280;51427;-27.442;153.014;2022-08-19T08:12:33;101109.53;;;27.99
64916;BMP280;51427;-27.442;153.014;2022-08-19T08:15:06;101105.56;;;27.68
64916;BMP280;51427;-27.442;153.014;2022-08-19T08:17:34;101109.00;;;27.83
64916;BMP280;51427;-27.442;153.014;2022-08-19T08:20:04;101117.22;;;27.88
64916;BMP280;51427;-27.442;153.014;2022-08-19T08:22:35;101123.69;;;27.52
64916;BMP280;51427;-27.442;153.014;2022-08-19T08:25:22;101128.13;;;27.31
64916;BMP280;51427;-27.442;153.014;2022-08-19T08:27:50;101142.97;;;25.59
64916;BMP280;51427;-27.442;153.014;2022-08-19T08:30:24;101150.06;;;25.89
64916;BMP280;51427;-27.442;153.014;2022-08-19T08:32:51;101153.56;;;26.69
64916;BMP280;51427;-27.442;153.014;2022-08-19T08:35:21;101145.44;;;26.20
64916;BMP280;51427;-27.442;153.014;2022-08-19T08:37:51;101164.28;;;24.99
64916;BMP280;51427;-27.442;153.014;2022-08-19T08:43:01;101161.94;;;24.96
64916;BMP280;51427;-27.442;153.014;2022-08-19T08:45:32;101163.94;;;25.54
64916;BMP280;51427;-27.442;153.014;2022-08-19T08:48:04;101173.19;;;25.58
64916;BMP280;51427;-27.442;153.014;2022-08-19T08:50:41;101179.88;;;24.86
64916;BMP280;51427;-27.442;153.014;2022-08-19T08:53:10;101175.63;;;25.90
64916;BMP280;51427;-27.442;153.014;2022-08-19T08:55:41;101184.31;;;25.02
64916;BMP280;51427;-27.442;153.014;2022-08-19T08:58:29;101197.31;;;25.19
64916;BMP280;51427;-27.442;153.014;2022-08-19T09:00:58;101199.28;;;25.25
64916;BMP280;51427;-27.442;153.014;2022-08-19T09:03:27;101198.72;;;25.59
64916;BMP280;51427;-27.442;153.014;2022-08-19T09:08:33;101216.63;;;24.97
64916;BMP280;51427;-27.442;153.014;2022-08-19T09:11:10;101218.97;;;24.92
64916;BMP280;51427;-27.442;153.014;2022-08-19T09:16:15;101238.13;;;24.56
64916;BMP280;51427;-27.442;153.014;2022-08-19T09:18:45;101232.84;;;24.24
64916;BMP280;51427;-27.442;153.014;2022-08-19T09:21:19;101239.78;;;23.78
64916;BMP280;51427;-27.442;153.014;2022-08-19T09:23:49;101253.19;;;24.24
64916;BMP280;51427;-27.442;153.014;2022-08-19T09:26:18;101256.78;;;22.85
64916;BMP280;51427;-27.442;153.014;2022-08-19T09:28:48;101259.38;;;22.77
64916;BMP280;51427;-27.442;153.014;2022-08-19T09:31:25;101261.44;;;23.73
64916;BMP280;51427;-27.442;153.014;2022-08-19T09:33:54;101266.78;;;23.40
64916;BMP280;51427;-27.442;153.014;2022-08-19T09:36:26;101273.69;;;23.66
64916;BMP280;51427;-27.442;153.014;2022-08-19T09:38:56;101272.50;;;23.20
64916;BMP280;51427;-27.442;153.014;2022-08-19T09:41:25;101272.91;;;23.49
64916;BMP280;51427;-27.442;153.014;2022-08-19T09:43:57;101282.97;;;22.96
64916;BMP280;51427;-27.442;153.014;2022-08-19T09:46:26;101276.94;;;23.61
64916;BMP280;51427;-27.442;153.014;2022-08-19T09:48:54;101278.97;;;23.66
64916;BMP280;51427;-27.442;153.014;2022-08-19T09:51:25;101283.03;;;22.62
64916;BMP280;51427;-27.442;153.014;2022-08-19T09:53:58;101280.38;;;23.12
64916;BMP280;51427;-27.442;153.014;2022-08-19T09:56:25;101279.56;;;23.12
64916;BMP280;51427;-27.442;153.014;2022-08-19T09:58:53;101291.03;;;22.69
64916;BMP280;51427;-27.442;153.014;2022-08-19T10:01:26;101288.28;;;23.04
64916;BMP280;51427;-27.442;153.014;2022-08-19T10:03:56;101282.56;;;23.16
64916;BMP280;51427;-27.442;153.014;2022-08-19T10:06:25;101285.50;;;23.47
64916;BMP280;51427;-27.442;153.014;2022-08-19T10:08:56;101284.44;;;23.73
64916;BMP280;51427;-27.442;153.014;2022-08-19T10:11:23;101292.22;;;23.74
64916;BMP280;51427;-27.442;153.014;2022-08-19T10:13:50;101290.31;;;24.56
64916;BMP280;51427;-27.442;153.014;2022-08-19T10:16:21;101301.66;;;23.85
64916;BMP280;51427;-27.442;153.014;2022-08-19T10:18:50;101302.53;;;24.17
64916;BMP280;51427;-27.442;153.014;2022-08-19T10:21:21;101306.19;;;24.56
64916;BMP280;51427;-27.442;153.014;2022-08-19T10:23:51;101314.66;;;24.51
64916;BMP280;51427;-27.442;153.014;2022-08-19T10:26:24;101318.31;;;24.58
64916;BMP280;51427;-27.442;153.014;2022-08-19T10:28:52;101314.47;;;24.76
64916;BMP280;51427;-27.442;153.014;2022-08-19T10:31:24;101332.03;;;24.61
64916;BMP280;51427;-27.442;153.014;2022-08-19T10:33:52;101336.34;;;24.70
64916;BMP280;51427;-27.442;153.014;2022-08-19T10:36:30;101332.16;;;25.07
64916;BMP280;51427;-27.442;153.014;2022-08-19T10:38:59;101338.59;;;25.21
64916;BMP280;51427;-27.442;153.014;2022-08-19T10:41:31;101340.44;;;25.12
64916;BMP280;51427;-27.442;153.014;2022-08-19T10:44:02;101355.19;;;24.28
64916;BMP280;51427;-27.442;153.014;2022-08-19T10:46:30;101355.06;;;24.37
64916;BMP280;51427;-27.442;153.014;2022-08-19T10:49:00;101371.03;;;24.04
64916;BMP280;51427;-27.442;153.014;2022-08-19T10:51:28;101365.53;;;24.62
64916;BMP280;51427;-27.442;153.014;2022-08-19T10:54:13;101362.91;;;23.98
64916;BMP280;51427;-27.442;153.014;2022-08-19T10:56:41;101362.53;;;24.65
64916;BMP280;51427;-27.442;153.014;2022-08-19T10:59:30;101374.75;;;23.70
64916;BMP280;51427;-27.442;153.014;2022-08-19T11:02:03;101372.06;;;24.19
64916;BMP280;51427;-27.442;153.014;2022-08-19T11:04:30;101371.97;;;24.44
64916;BMP280;51427;-27.442;153.014;2022-08-19T11:06:58;101375.72;;;24.18
64916;BMP280;51427;-27.442;153.014;2022-08-19T11:09:26;101370.94;;;24.21
64916;BMP280;51427;-27.442;153.014;2022-08-19T11:11:54;101390.97;;;22.74
64916;BMP280;51427;-27.442;153.014;2022-08-19T11:14:23;101386.47;;;23.09
64916;BMP280;51427;-27.442;153.014;2022-08-19T11:16:52;101393.22;;;23.29
64916;BMP280;51427;-27.442;153.014;2022-08-19T11:19:22;101386.00;;;23.39
64916;BMP280;51427;-27.442;153.014;2022-08-19T11:21:51;101396.59;;;23.39
64916;BMP280;51427;-27.442;153.014;2022-08-19T11:24:23;101395.25;;;23.68
64916;BMP280;51427;-27.442;153.014;2022-08-19T11:26:53;101393.84;;;23.81
64916;BMP280;51427;-27.442;153.014;2022-08-19T11:29:25;101399.34;;;23.04
64916;BMP280;51427;-27.442;153.014;2022-08-19T11:31:54;101408.81;;;23.40
64916;BMP280;51427;-27.442;153.014;2022-08-19T11:34:24;101404.94;;;23.60
64916;BMP280;51427;-27.442;153.014;2022-08-19T11:36:51;101401.47;;;23.84
64916;BMP280;51427;-27.442;153.014;2022-08-19T11:39:21;101411.69;;;23.79
64916;BMP280;51427;-27.442;153.014;2022-08-19T11:41:49;101414.03;;;23.90
64916;BMP280;51427;-27.442;153.014;2022-08-19T11:44:16;101416.72;;;23.98
64916;BMP280;51427;-27.442;153.014;2022-08-19T11:46:45;101410.13;;;24.10
64916;BMP280;51427;-27.442;153.014;2022-08-19T11:49:14;101428.38;;;23.21
64916;BMP280;51427;-27.442;153.014;2022-08-19T11:51:42;101422.81;;;23.58
64916;BMP280;51427;-27.442;153.014;2022-08-19T11:54:15;101431.22;;;23.53
64916;BMP280;51427;-27.442;153.014;2022-08-19T11:56:43;101428.00;;;23.67
64916;BMP280;51427;-27.442;153.014;2022-08-19T11:59:10;101431.72;;;23.82
64916;BMP280;51427;-27.442;153.014;2022-08-19T12:01:37;101439.16;;;22.07
64916;BMP280;51427;-27.442;153.014;2022-08-19T12:04:07;101440.28;;;20.77
64916;BMP280;51427;-27.442;153.014;2022-08-19T12:06:37;101436.91;;;20.47
64916;BMP280;51427;-27.442;153.014;2022-08-19T12:09:06;101422.00;;;21.67
64916;BMP280;51427;-27.442;153.014;2022-08-19T12:11:35;101424.50;;;21.32
64916;BMP280;51427;-27.442;153.014;2022-08-19T12:14:03;101424.22;;;22.76
64916;BMP280;51427;-27.442;153.014;2022-08-19T12:16:31;101434.19;;;22.48
64916;BMP280;51427;-27.442;153.014;2022-08-19T12:18:59;101435.53;;;22.86
64916;BMP280;51427;-27.442;153.014;2022-08-19T12:21:31;101441.44;;;22.80
64916;BMP280;51427;-27.442;153.014;2022-08-19T12:24:00;101446.28;;;22.50
64916;BMP280;51427;-27.442;153.014;2022-08-19T12:26:29;101456.41;;;22.55
64916;BMP280;51427;-27.442;153.014;2022-08-19T12:28:58;101456.22;;;22.73
64916;BMP280;51427;-27.442;153.014;2022-08-19T12:31:27;101466.19;;;22.45
64916;BMP280;51427;-27.442;153.014;2022-08-19T12:33:54;101467.03;;;21.92
64916;BMP280;51427;-27.442;153.014;2022-08-19T12:36:22;101467.19;;;21.90
64916;BMP280;51427;-27.442;153.014;2022-08-19T12:38:50;101472.16;;;21.67
64916;BMP280;51427;-27.442;153.014;2022-08-19T12:41:18;101473.41;;;20.89
64916;BMP280;51427;-27.442;153.014;2022-08-19T12:43:48;101463.06;;;21.52
64916;BMP280;51427;-27.442;153.014;2022-08-19T12:46:18;101461.50;;;22.12
64916;BMP280;51427;-27.442;153.014;2022-08-19T12:48:46;101466.28;;;21.73
64916;BMP280;51427;-27.442;153.014;2022-08-19T12:51:16;101465.13;;;22.21
64916;BMP280;51427;-27.442;153.014;2022-08-19T12:53:46;101480.06;;;22.03
64916;BMP280;51427;-27.442;153.014;2022-08-19T12:56:14;101477.75;;;22.44
64916;BMP280;51427;-27.442;153.014;2022-08-19T12:58:42;101466.81;;;22.56
64916;BMP280;51427;-27.442;153.014;2022-08-19T13:01:12;101475.56;;;22.39
64916;BMP280;51427;-27.442;153.014;2022-08-19T13:03:40;101489.66;;;22.04
64916;BMP280;51427;-27.442;153.014;2022-08-19T13:06:08;101491.03;;;22.34
64916;BMP280;51427;-27.442;153.014;2022-08-19T13:08:36;101497.25;;;22.07
64916;BMP280;51427;-27.442;153.014;2022-08-19T13:11:22;101504.41;;;20.57
64916;BMP280;51427;-27.442;153.014;2022-08-19T13:13:53;101498.59;;;20.54
64916;BMP280;51427;-27.442;153.014;2022-08-19T13:16:21;101505.72;;;20.14
64916;BMP280;51427;-27.442;153.014;2022-08-19T13:18:49;101497.25;;;19.81
64916;BMP280;51427;-27.442;153.014;2022-08-19T13:21:23;101490.66;;;19.87
64916;BMP280;51427;-27.442;153.014;2022-08-19T13:23:50;101487.44;;;20.22
64916;BMP280;51427;-27.442;153.014;2022-08-19T13:26:18;101481.00;;;20.64
64916;BMP280;51427;-27.442;153.014;2022-08-19T13:28:45;101482.84;;;19.76
64916;BMP280;51427;-27.442;153.014;2022-08-19T13:31:33;101499.44;;;20.06
64916;BMP280;51427;-27.442;153.014;2022-08-19T13:34:33;101503.44;;;18.48
64916;BMP280;51427;-27.442;153.014;2022-08-19T13:37:04;101522.38;;;19.24
64916;BMP280;51427;-27.442;153.014;2022-08-19T13:39:32;101536.44;;;20.14
64916;BMP280;51427;-27.442;153.014;2022-08-19T13:42:00;101537.13;;;20.45
64916;BMP280;51427;-27.442;153.014;2022-08-19T13:44:28;101534.44;;;21.03
64916;BMP280;51427;-27.442;153.014;2022-08-19T13:47:02;101545.22;;;19.44